Time;durP1;ratioP1;P1;durP2;ratioP2;P2;SDS_P1;SDS_P2;PMS_P1;PMS_P2;Temp;Humidity;BMP_temperature;BMP_pressure;BME280_temperature;BME280_humidity;BME280_pressure;Samples;Min_cycle;Max_cycle;Signal;HPM_P1;HPM_P2
2020/12/18 00:01:24;;;;;;;6.30;2.08;;;6.40;99.90;;;;;;5091586;28;20114;-79
2020/12/18 00:03:52;;;;;;;5.43;2.20;;;6.30;99.90;;;;;;5092503;28;20141;-79
2020/12/18 00:06:18;;;;;;;4.63;2.20;;;6.30;99.90;;;;;;5091369;28;20043;-79
2020/12/18 00:08:44;;;;;;;7.45;2.83;;;6.30;99.90;;;;;;5092072;28;20121;-79
2020/12/18 00:11:10;;;;;;;5.25;2.28;;;6.40;99.90;;;;;;5091122;28;20055;-79
2020/12/18 00:13:36;;;;;;;6.30;2.28;;;6.30;99.90;;;;;;5091174;28;20039;-79
2020/12/18 00:16:02;;;;;;;7.13;2.42;;;6.40;99.90;;;;;;5091531;28;20051;-79
2020/12/18 00:18:28;;;;;;;8.05;2.40;;;6.30;99.90;;;;;;5091012;28;20040;-79
2020/12/18 00:20:53;;;;;;;7.88;2.65;;;6.40;99.90;;;;;;5091710;28;20513;-81
2020/12/18 00:23:19;;;;;;;3.97;2.22;;;6.30;99.90;;;;;;5091099;28;20054;-80
2020/12/18 00:25:46;;;;;;;3.30;1.60;;;6.40;99.90;;;;;;5090950;28;20040;-81
2020/12/18 00:28:12;;;;;;;5.10;1.85;;;6.50;99.90;;;;;;5090999;28;20044;-81
2020/12/18 00:30:40;;;;;;;4.10;2.47;;;6.50;99.90;;;;;;5091025;28;20452;-81
2020/12/18 00:33:05;;;;;;;5.03;2.35;;;6.40;99.90;;;;;;5093477;28;20047;-80
2020/12/18 00:35:31;;;;;;;8.93;2.75;;;6.40;99.90;;;;;;5094250;28;20100;-80
2020/12/18 00:37:56;;;;;;;4.90;2.10;;;6.40;99.90;;;;;;5094309;28;20040;-81
2020/12/18 00:40:22;;;;;;;8.80;2.75;;;6.40;99.90;;;;;;5093623;28;20044;-80
2020/12/18 00:42:48;;;;;;;2.75;1.65;;;6.50;99.90;;;;;;5095544;28;20040;-80
2020/12/18 00:45:13;;;;;;;5.43;2.28;;;6.50;99.90;;;;;;5094084;28;20036;-80
2020/12/18 00:47:40;;;;;;;4.68;2.15;;;6.50;99.90;;;;;;5093903;28;20086;-81
2020/12/18 00:50:05;;;;;;;7.72;2.35;;;6.40;99.90;;;;;;5094658;28;20409;-81
2020/12/18 00:52:31;;;;;;;7.00;2.00;;;6.50;99.90;;;;;;5094066;28;20067;-80
2020/12/18 00:54:57;;;;;;;7.38;2.53;;;6.50;99.90;;;;;;5093989;28;20071;-81
2020/12/18 00:57:24;;;;;;;10.35;2.53;;;6.40;99.90;;;;;;5093728;28;20048;-80
2020/12/18 00:59:50;;;;;;;7.63;2.55;;;6.40;99.90;;;;;;5093186;28;20054;-81
2020/12/18 01:02:15;;;;;;;5.97;2.00;;;6.40;99.90;;;;;;5094936;28;20520;-80
2020/12/18 01:04:42;;;;;;;3.75;2.28;;;6.40;99.90;;;;;;5093783;28;20040;-80
2020/12/18 01:07:07;;;;;;;6.38;2.78;;;6.30;99.90;;;;;;5093572;28;20048;-80
2020/12/18 01:09:33;;;;;;;5.07;2.40;;;6.30;99.90;;;;;;5094065;28;20043;-81
2020/12/18 01:11:59;;;;;;;3.97;1.92;;;6.40;99.90;;;;;;5093767;28;20132;-80
2020/12/18 01:14:25;;;;;;;7.53;2.50;;;;;;;;;;5093337;28;20143;-80
2020/12/18 01:16:51;;;;;;;6.57;2.53;;;6.30;99.90;;;;;;5093618;28;20519;-80
2020/12/18 01:19:17;;;;;;;8.02;2.30;;;6.30;99.90;;;;;;5092686;28;20123;-80
2020/12/18 01:21:44;;;;;;;3.83;1.88;;;6.30;99.90;;;;;;5094377;28;20116;-81
2020/12/18 01:24:09;;;;;;;4.30;2.20;;;6.30;99.90;;;;;;5093356;28;20123;-81
2020/12/18 01:26:35;;;;;;;6.32;2.00;;;6.20;99.90;;;;;;5093531;28;20584;-80
2020/12/18 01:29:01;;;;;;;4.93;1.88;;;6.30;99.90;;;;;;5092919;28;20035;-80
2020/12/18 01:31:26;;;;;;;7.15;2.30;;;6.20;99.90;;;;;;5093169;28;20036;-81
2020/12/18 01:33:52;;;;;;;10.00;2.15;;;6.20;99.90;;;;;;5094387;28;20040;-81
2020/12/18 01:36:18;;;;;;;4.30;1.98;;;6.20;99.90;;;;;;5094312;28;20075;-80
2020/12/18 01:38:44;;;;;;;8.00;2.17;;;6.20;99.90;;;;;;5092655;28;20496;-80
2020/12/18 01:41:10;;;;;;;5.85;2.42;;;6.20;99.90;;;;;;5092970;28;20127;-81
2020/12/18 01:43:36;;;;;;;6.15;2.50;;;6.20;99.90;;;;;;5093035;28;20135;-80
2020/12/18 01:46:09;;;;;;;8.20;2.80;;;6.20;99.90;;;;;;5094359;28;20047;-80
2020/12/18 01:48:35;;;;;;;4.43;2.22;;;6.30;99.90;;;;;;5092398;28;20062;-81
2020/12/18 01:51:01;;;;;;;7.97;2.22;;;6.30;99.90;;;;;;5092824;28;20545;-80
2020/12/18 01:53:29;;;;;;;5.38;2.50;;;6.40;99.90;;;;;;5092802;28;20405;-80
2020/12/18 01:55:56;;;;;;;3.50;1.65;;;6.50;99.90;;;;;;5092838;28;20036;-80
2020/12/18 01:58:22;;;;;;;5.75;2.08;;;6.50;99.90;;;;;;5092766;28;20044;-80
2020/12/18 02:00:48;;;;;;;3.70;1.70;;;6.60;99.90;;;;;;5092088;28;20036;-80
2020/12/18 02:03:14;;;;;;;6.25;2.55;;;6.60;99.90;;;;;;5093946;28;20040;-80
2020/12/18 02:05:40;;;;;;;4.97;2.17;;;6.70;99.90;;;;;;5093944;28;20039;-80
2020/12/18 02:08:05;;;;;;;4.95;2.03;;;6.60;99.90;;;;;;5092855;28;20126;-80
2020/12/18 02:10:32;;;;;;;7.32;2.38;;;6.60;99.90;;;;;;5091840;28;20494;-80
2020/12/18 02:12:59;;;;;;;9.13;2.33;;;6.50;99.90;;;;;;5092519;28;20031;-80
2020/12/18 02:15:25;;;;;;;6.10;2.13;;;6.60;99.90;;;;;;5092478;28;20078;-81
2020/12/18 02:17:52;;;;;;;6.45;2.35;;;6.60;99.90;;;;;;5092361;28;20040;-80
2020/12/18 02:20:18;;;;;;;3.70;2.10;;;6.60;99.90;;;;;;5091947;28;20036;-81
2020/12/18 02:22:44;;;;;;;5.22;2.50;;;6.60;99.90;;;;;;5092988;28;20036;-79
2020/12/18 02:25:11;;;;;;;4.88;2.80;;;6.70;99.90;;;;;;5093827;28;20587;-81
2020/12/18 02:27:39;;;;;;;5.88;2.47;;;6.70;99.90;;;;;;5092730;28;20571;-81
2020/12/18 02:30:06;;;;;;;7.10;2.60;;;6.70;99.90;;;;;;5091469;28;20040;-81
2020/12/18 02:32:31;;;;;;;5.00;2.35;;;6.80;99.90;;;;;;5093436;28;20044;-81
2020/12/18 02:34:57;;;;;;;6.40;2.50;;;6.90;99.90;;;;;;5093690;28;20113;-81
2020/12/18 02:37:23;;;;;;;7.53;2.65;;;6.90;99.90;;;;;;5094232;28;20036;-81
2020/12/18 02:39:49;;;;;;;6.40;2.63;;;6.90;99.90;;;;;;5092750;28;20039;-81
2020/12/18 02:42:14;;;;;;;7.95;2.45;;;6.90;99.90;;;;;;5093050;28;20043;-81
2020/12/18 02:44:41;;;;;;;3.80;1.95;;;6.90;99.90;;;;;;5094346;28;20097;-81
2020/12/18 02:47:06;;;;;;;7.30;2.85;;;6.90;99.90;;;;;;5093798;28;20127;-81
2020/12/18 02:49:32;;;;;;;6.28;2.75;;;6.90;99.90;;;;;;5094497;28;20446;-81
2020/12/18 02:52:00;;;;;;;7.78;2.85;;;7.00;99.90;;;;;;5093818;28;20490;-81
2020/12/18 02:54:25;;;;;;;6.72;2.60;;;7.00;99.90;;;;;;5093698;28;20410;-81
2020/12/18 02:56:51;;;;;;;6.78;2.50;;;7.00;99.90;;;;;;5093505;28;20046;-81
2020/12/18 02:59:16;;;;;;;6.63;2.67;;;6.90;99.90;;;;;;5094883;28;20043;-81
2020/12/18 03:01:43;;;;;;;8.75;2.70;;;6.90;99.90;;;;;;5093003;28;20401;-81
2020/12/18 03:04:09;;;;;;;7.22;2.53;;;6.90;99.90;;;;;;5093817;28;20496;-81
2020/12/18 03:06:34;;;;;;;5.97;3.10;;;6.80;99.90;;;;;;5093281;28;20036;-80
2020/12/18 03:09:00;;;;;;;7.00;2.40;;;6.80;99.90;;;;;;5093348;28;20048;-81
2020/12/18 03:11:25;;;;;;;7.65;2.70;;;6.80;99.90;;;;;;5093495;28;20047;-81
2020/12/18 03:13:51;;;;;;;5.30;2.60;;;6.80;99.90;;;;;;5093739;28;20036;-81
2020/12/18 03:16:17;;;;;;;4.28;2.50;;;6.80;99.90;;;;;;5093434;28;20047;-81
2020/12/18 03:18:43;;;;;;;6.85;2.53;;;6.70;99.90;;;;;;5094332;28;20146;-81
2020/12/18 03:21:09;;;;;;;6.30;3.10;;;6.60;99.90;;;;;;5093080;28;20471;-82
2020/12/18 03:23:35;;;;;;;8.00;2.97;;;6.60;99.90;;;;;;5093276;28;20040;-81
2020/12/18 03:26:00;;;;;;;8.13;3.10;;;6.60;99.90;;;;;;5093185;28;20089;-81
2020/12/18 03:28:26;;;;;;;5.80;2.92;;;6.60;99.90;;;;;;5094817;28;20046;-81
2020/12/18 03:30:52;;;;;;;6.35;2.72;;;6.70;99.90;;;;;;5092452;28;20040;-81
2020/12/18 03:33:17;;;;;;;4.32;2.45;;;6.70;99.90;;;;;;5094489;28;20081;-81
2020/12/18 03:35:44;;;;;;;7.70;2.60;;;6.90;99.90;;;;;;5091993;28;20039;-81
2020/12/18 03:38:10;;;;;;;8.35;2.75;;;7.00;99.90;;;;;;5097772;28;20040;-81
2020/12/18 03:40:35;;;;;;;6.43;2.20;;;7.10;99.90;;;;;;5097194;28;20134;-81
2020/12/18 03:43:01;;;;;;;7.57;2.72;;;7.10;99.90;;;;;;5096950;28;20074;-81
2020/12/18 03:45:26;;;;;;;7.47;2.63;;;7.20;99.90;;;;;;5097259;28;20066;-81
2020/12/18 03:47:52;;;;;;;4.72;2.58;;;7.10;99.90;;;;;;5097043;28;20032;-81
2020/12/18 03:50:18;;;;;;;5.38;2.55;;;7.20;99.90;;;;;;5096237;28;20512;-81
2020/12/18 03:52:44;;;;;;;6.72;2.45;;;7.30;99.90;;;;;;5096582;28;20080;-81
2020/12/18 03:55:10;;;;;;;4.07;2.15;;;7.30;99.90;;;;;;5097586;28;20040;-81
2020/12/18 03:57:35;;;;;;;5.05;2.17;;;7.40;99.90;;;;;;5095090;28;20043;-81
2020/12/18 04:00:01;;;;;;;5.70;2.17;;;7.40;99.90;;;;;;5096242;28;20108;-82
2020/12/18 04:02:26;;;;;;;5.90;2.20;;;7.40;99.90;;;;;;5096535;28;20533;-81
2020/12/18 04:04:52;;;;;;;6.15;2.25;;;7.40;99.90;;;;;;5097005;28;20120;-81
2020/12/18 04:07:17;;;;;;;6.32;2.70;;;7.40;99.90;;;;;;5096565;28;20040;-79
2020/12/18 04:09:44;;;;;;;4.40;2.30;;;7.40;99.90;;;;;;5094822;28;20440;-81
2020/12/18 04:12:11;;;;;;;6.95;2.15;;;7.40;99.90;;;;;;5096177;28;20558;-81
2020/12/18 04:14:36;;;;;;;5.55;2.15;;;7.50;99.90;;;;;;5096095;28;20044;-81
2020/12/18 04:17:02;;;;;;;4.47;2.22;;;7.50;99.90;;;;;;5096130;28;20573;-81
2020/12/18 04:19:28;;;;;;;5.10;2.40;;;7.40;99.90;;;;;;5094428;28;20051;-81
2020/12/18 04:21:54;;;;;;;10.20;2.80;;;7.40;99.90;;;;;;5095125;28;20047;-81
2020/12/18 04:24:20;;;;;;;9.32;2.85;;;7.40;99.90;;;;;;5096802;28;20118;-81
2020/12/18 04:26:46;;;;;;;5.78;2.33;;;7.40;99.90;;;;;;5096253;28;20393;-81
2020/12/18 04:29:12;;;;;;;6.85;2.40;;;;;;;;;;5094279;28;20074;-80
2020/12/18 04:31:38;;;;;;;7.43;2.40;;;7.40;99.90;;;;;;5094704;28;20036;-81
2020/12/18 04:34:03;;;;;;;6.85;2.45;;;7.40;99.90;;;;;;5096021;28;20042;-81
2020/12/18 04:36:29;;;;;;;7.68;2.30;;;7.40;99.90;;;;;;5096291;28;20046;-81
2020/12/18 04:38:54;;;;;;;6.68;2.53;;;7.30;99.90;;;;;;5094346;28;20485;-81
2020/12/18 04:41:21;;;;;;;5.82;2.58;;;7.30;99.90;;;;;;5094503;28;20036;-82
2020/12/18 04:43:47;;;;;;;7.47;2.85;;;7.30;99.90;;;;;;5096255;28;20036;-82
2020/12/18 04:46:17;;;;;;;11.20;3.25;;;7.30;99.90;;;;;;5094844;28;20047;-81
2020/12/18 04:48:43;;;;;;;6.05;2.38;;;7.30;99.90;;;;;;5095259;28;20032;-81
2020/12/18 04:51:15;;;;;;;6.50;2.40;;;7.30;99.90;;;;;;5096300;28;20036;-81
2020/12/18 04:53:42;;;;;;;7.43;2.90;;;7.30;99.90;;;;;;5094605;28;20043;-81
2020/12/18 04:56:09;;;;;;;8.10;2.45;;;7.30;99.90;;;;;;5095874;28;20481;-81
2020/12/18 04:58:35;;;;;;;9.43;2.55;;;7.40;99.90;;;;;;5095750;28;20093;-81
2020/12/18 05:01:03;;;;;;;4.68;2.15;;;7.40;99.90;;;;;;5095764;28;20047;-81
2020/12/18 05:03:33;;;;;;;10.70;2.60;;;7.30;99.90;;;;;;5095800;28;20044;-81
2020/12/18 05:06:04;;;;;;;4.13;2.17;;;7.40;99.90;;;;;;5094761;28;20553;-81
2020/12/18 05:08:29;;;;;;;7.13;2.42;;;7.40;99.90;;;;;;5096186;28;20563;-81
2020/12/18 05:10:55;;;;;;;8.90;2.83;;;7.30;99.90;;;;;;5093529;28;20036;-81
2020/12/18 05:13:21;;;;;;;4.35;1.95;;;7.30;99.90;;;;;;5093857;28;20040;-81
2020/12/18 05:15:46;;;;;;;4.25;2.05;;;7.30;99.90;;;;;;5095817;28;20040;-81
2020/12/18 05:18:13;;;;;;;6.50;2.10;;;7.30;99.90;;;;;;5093921;28;20031;-81
2020/12/18 05:20:38;;;;;;;5.90;1.92;;;7.20;99.90;;;;;;5093754;28;20064;-81
2020/12/18 05:23:09;;;;;;;7.10;2.33;;;7.10;99.90;;;;;;5095463;28;20075;-81
2020/12/18 05:25:34;;;;;;;4.07;2.05;;;7.10;99.90;;;;;;5095008;28;20457;-80
2020/12/18 05:28:03;;;;;;;8.20;2.10;;;7.20;99.90;;;;;;5093586;28;20079;-80
2020/12/18 05:30:29;;;;;;;5.05;1.77;;;7.20;99.90;;;;;;5092535;28;20085;-81
2020/12/18 05:32:54;;;;;;;6.55;1.88;;;7.10;99.90;;;;;;5094936;28;20036;-81
2020/12/18 05:35:21;;;;;;;5.05;1.92;;;7.10;99.90;;;;;;5093227;28;20036;-81
2020/12/18 05:37:47;;;;;;;4.68;1.58;;;7.10;99.90;;;;;;5094701;28;20507;-81
2020/12/18 05:40:12;;;;;;;8.00;2.00;;;7.00;99.90;;;;;;5094322;28;20119;-81
2020/12/18 05:42:42;;;;;;;3.97;1.67;;;6.80;99.90;;;;;;5095069;28;20036;-81
2020/12/18 05:45:13;;;;;;;3.92;1.92;;;6.80;99.90;;;;;;5095392;28;20558;-81
2020/12/18 05:47:56;;;;;;;4.18;1.60;;;6.70;99.90;;;;;;5093706;28;20044;-81
2020/12/18 05:50:28;;;;;;;5.07;1.77;;;6.70;99.90;;;;;;5092376;28;20093;-81
2020/12/18 05:52:58;;;;;;;5.25;1.80;;;6.70;99.90;;;;;;5093433;28;20087;-81
2020/12/18 05:55:25;;;;;;;6.75;2.20;;;6.70;99.90;;;;;;5092922;28;20032;-81
2020/12/18 05:57:52;;;;;;;6.20;2.00;;;6.60;99.90;;;;;;5092954;28;20195;-81
2020/12/18 06:00:19;;;;;;;5.55;2.03;;;6.70;99.90;;;;;;5091284;28;20036;-80
2020/12/18 06:02:48;;;;;;;5.68;1.75;;;6.60;99.90;;;;;;5093895;28;20040;-81
2020/12/18 06:05:15;;;;;;;6.32;2.00;;;6.70;99.90;;;;;;5093089;28;20460;-80
2020/12/18 06:07:42;;;;;;;4.70;1.88;;;6.70;99.90;;;;;;5092603;28;20044;-81
2020/12/18 06:10:08;;;;;;;9.73;1.92;;;6.60;99.90;;;;;;5092522;28;20079;-81
2020/12/18 06:12:34;;;;;;;5.13;2.08;;;6.60;99.90;;;;;;5095010;28;20044;-81
2020/12/18 06:15:01;;;;;;;5.38;1.70;;;6.60;99.90;;;;;;5093503;28;20080;-80
2020/12/18 06:17:28;;;;;;;5.85;2.38;;;6.60;99.90;;;;;;5094581;28;20112;-81
2020/12/18 06:19:56;;;;;;;7.47;2.05;;;6.60;99.90;;;;;;5091881;28;20036;-81
2020/12/18 06:22:22;;;;;;;5.18;1.80;;;6.60;99.90;;;;;;5092993;28;20067;-81
2020/12/18 06:24:49;;;;;;;5.68;2.00;;;6.50;99.90;;;;;;5094058;28;20457;-81
2020/12/18 06:27:16;;;;;;;5.85;2.20;;;6.40;99.90;;;;;;5095819;28;20044;-82
2020/12/18 06:29:42;;;;;;;6.10;2.08;;;6.30;99.90;;;;;;5096828;28;20494;-81
2020/12/18 06:32:26;;;;;;;2.70;1.58;;;6.30;99.90;;;;;;5093953;28;20097;-81
2020/12/18 06:34:51;;;;;;;7.32;2.10;;;6.30;99.90;;;;;;5093494;28;20108;-81
2020/12/18 06:37:28;;;;;;;9.43;2.25;;;6.40;99.90;;;;;;5093495;28;20123;-81
2020/12/18 06:39:55;;;;;;;8.43;2.03;;;7.40;99.90;;;;;;5092835;28;20032;-80
2020/12/18 06:42:22;;;;;;;5.05;2.30;;;6.40;99.90;;;;;;5093291;28;20079;-80
2020/12/18 06:44:49;;;;;;;4.45;2.05;;;6.50;99.90;;;;;;5093113;28;20032;-80
2020/12/18 06:47:18;;;;;;;6.95;1.80;;;6.50;99.90;;;;;;5092141;28;20136;-80
2020/12/18 06:50:09;;;;;;;2.97;1.60;;;6.60;99.90;;;;;;5092860;28;20063;-80
2020/12/18 06:52:40;;;;;;;3.50;1.42;;;6.60;99.90;;;;;;5092181;28;20047;-80
2020/12/18 06:55:09;;;;;;;5.50;1.52;;;6.60;99.90;;;;;;5091736;28;20044;-80
2020/12/18 06:57:34;;;;;;;4.82;1.98;;;6.60;99.90;;;;;;5092021;28;20131;-80
2020/12/18 07:00:25;;;;;;;4.85;1.67;;;6.60;99.90;;;;;;5091325;28;20127;-80
2020/12/18 07:02:51;;;;;;;4.75;2.13;;;6.60;99.90;;;;;;5092259;28;20550;-80
2020/12/18 07:05:34;;;;;;;8.13;2.05;;;6.60;99.90;;;;;;5092932;28;20075;-80
2020/12/18 07:08:02;;;;;;;10.10;2.28;;;6.50;99.90;;;;;;5091882;28;20182;-80
2020/12/18 07:10:30;;;;;;;6.07;2.05;;;6.50;99.90;;;;;;5091255;28;20032;-80
2020/12/18 07:12:57;;;;;;;8.40;1.85;;;6.50;99.90;;;;;;5095480;28;20450;-80
2020/12/18 07:15:27;;;;;;;5.63;2.50;;;6.50;99.90;;;;;;5097233;28;20086;-80
2020/12/18 07:17:55;;;;;;;4.70;1.75;;;6.50;99.90;;;;;;5095854;28;20039;-80
2020/12/18 07:20:24;;;;;;;9.30;2.15;;;6.40;99.90;;;;;;5095290;28;20495;-80
2020/12/18 07:22:49;;;;;;;6.15;2.50;;;6.40;99.90;;;;;;5097428;28;20118;-80
2020/12/18 07:25:15;;;;;;;4.95;1.73;;;6.40;99.90;;;;;;5095808;28;20581;-79
2020/12/18 07:27:42;;;;;;;3.65;2.25;;;6.40;99.90;;;;;;5096379;28;20493;-80
2020/12/18 07:30:09;;;;;;;6.38;2.67;;;6.30;99.90;;;;;;5095353;28;20557;-80
2020/12/18 07:32:35;;;;;;;11.38;2.50;;;6.30;99.90;;;;;;5095521;28;20501;-80
2020/12/18 07:35:05;;;;;;;5.57;2.83;;;6.20;99.90;;;;;;5096695;28;20044;-80
2020/12/18 07:37:33;;;;;;;8.02;2.60;;;6.20;99.90;;;;;;5095758;28;20138;-80
2020/12/18 07:39:59;;;;;;;3.83;2.17;;;6.20;99.90;;;;;;5096346;28;20421;-80
2020/12/18 07:42:25;;;;;;;7.45;2.05;;;6.20;99.90;;;;;;5095766;28;20044;-80
2020/12/18 07:45:07;;;;;;;3.85;2.25;;;6.30;99.90;;;;;;5095289;28;20047;-80
2020/12/18 07:47:34;;;;;;;7.60;2.97;;;6.20;99.90;;;;;;5095135;28;20062;-80
2020/12/18 07:50:02;;;;;;;9.98;2.80;;;6.20;99.90;;;;;;5096053;28;20044;-80
2020/12/18 07:52:28;;;;;;;5.30;2.05;;;6.10;99.90;;;;;;5095546;28;20136;-80
2020/12/18 07:54:54;;;;;;;6.65;2.65;;;6.10;99.90;;;;;;5095107;28;20390;-80
2020/12/18 07:57:20;;;;;;;2.88;1.27;;;6.20;99.90;;;;;;5095570;28;20082;-80
2020/12/18 07:59:46;;;;;;;5.88;2.53;;;6.30;99.90;;;;;;5095917;28;20071;-79
2020/12/18 08:02:21;;;;;;;6.50;2.53;;;6.30;99.90;;;;;;5094965;28;20492;-80
2020/12/18 08:04:47;;;;;;;3.83;2.33;;;6.30;99.90;;;;;;5096253;28;20482;-80
2020/12/18 08:07:13;;;;;;;7.60;2.83;;;6.30;99.90;;;;;;5096496;28;20036;-80
2020/12/18 08:09:39;;;;;;;3.35;1.80;;;6.30;99.90;;;;;;5094565;28;20054;-80
2020/12/18 08:12:10;;;;;;;3.70;2.05;;;6.30;99.90;;;;;;5095081;28;20413;-79
2020/12/18 08:14:35;;;;;;;6.93;2.63;;;6.30;99.90;;;;;;5094949;28;20039;-80
2020/12/18 08:17:01;;;;;;;5.65;2.20;;;6.30;99.90;;;;;;5094605;28;20528;-80
2020/12/18 08:19:28;;;;;;;5.25;2.17;;;;;;;;;;5095500;28;20465;-80
2020/12/18 08:21:55;;;;;;;3.83;2.13;;;6.30;99.90;;;;;;5096179;28;20044;-80
2020/12/18 08:24:25;;;;;;;5.80;2.10;;;6.30;99.90;;;;;;5093705;28;20176;-80
2020/12/18 08:26:55;;;;;;;3.83;1.85;;;6.40;99.90;;;;;;5094430;28;20067;-80
2020/12/18 08:29:21;;;;;;;;;;;6.40;99.90;;;;;;5089426;28;20048;-79
2020/12/18 08:31:47;;;;;;;;;;;6.40;99.90;;;;;;5091965;28;20442;-80
2020/12/18 08:34:15;;;;;;;;;;;6.50;99.90;;;;;;5093149;28;19947;-80
2020/12/18 08:36:43;;;;;;;;;;;6.50;99.90;;;;;;5091361;28;19943;-80
2020/12/18 08:39:10;;;;;;;;;;;6.50;99.90;;;;;;5090775;28;19924;-80
2020/12/18 08:41:40;;;;;;;;;;;6.50;99.90;;;;;;5092484;28;19998;-81
2020/12/18 08:44:06;;;;;;;;;;;6.50;99.90;;;;;;5091909;28;19969;-80
2020/12/18 08:46:32;;;;;;;;;;;6.60;99.90;;;;;;5092825;28;19936;-80
2020/12/18 08:48:58;;;;;;;;;;;6.50;99.90;;;;;;5091020;28;20340;-80
2020/12/18 08:51:23;;;;;;;;;;;6.60;99.90;;;;;;5092545;28;19985;-81
2020/12/18 08:53:50;;;;;;;;;;;6.60;99.90;;;;;;5091208;28;19920;-80
2020/12/18 08:56:19;;;;;;;;;;;6.60;99.90;;;;;;5091044;28;19923;-80
2020/12/18 08:58:44;;;;;;;;;;;6.60;99.90;;;;;;5092199;28;19939;-80
2020/12/18 09:01:20;;;;;;;;;;;6.60;99.90;;;;;;5091079;28;19919;-80
2020/12/18 09:03:46;;;;;;;;;;;6.70;99.90;;;;;;5092203;28;19954;-80
2020/12/18 09:06:11;;;;;;;;;;;6.70;99.90;;;;;;5092118;28;19955;-80
2020/12/18 09:08:37;;;;;;;;;;;6.80;99.90;;;;;;5091844;28;19920;-80
2020/12/18 09:11:04;;;;;;;;;;;6.80;99.90;;;;;;5090951;28;19919;-80
2020/12/18 09:13:30;;;;;;;;;;;6.80;99.90;;;;;;5092073;28;19924;-80
2020/12/18 09:16:03;;;;;;;;;;;6.90;99.90;;;;;;5091624;28;20381;-80
2020/12/18 09:18:29;;;;;;;;;;;6.90;99.90;;;;;;5090936;28;19923;-78
2020/12/18 09:20:55;;;;;;;;;;;7.00;99.90;;;;;;5091430;28;20014;-78
2020/12/18 09:23:28;;;;;;;;;;;7.00;99.90;;;;;;5090656;28;20403;-78
2020/12/18 09:25:53;;;;;;;;;;;7.00;99.90;;;;;;5090780;28;19943;-80
2020/12/18 09:28:20;;;;;;;;;;;7.10;99.90;;;;;;5095901;28;20005;-80
2020/12/18 09:30:46;;;;;;;;;;;7.10;99.90;;;;;;5091850;28;19924;-80
2020/12/18 09:33:17;;;;;;;;;;;7.10;99.90;;;;;;5093932;28;19966;-80
2020/12/18 09:35:43;;;;;;;;;;;7.10;99.90;;;;;;5094456;28;19920;-79
2020/12/18 09:38:09;;;;;;;;;;;7.10;99.90;;;;;;5093945;28;20292;-78
2020/12/18 09:40:35;;;;;;;;;;;7.20;99.90;;;;;;5093236;28;20425;-78
2020/12/18 09:43:01;;;;;;;;;;;7.20;99.90;;;;;;5095302;28;19962;-78
2020/12/18 09:45:27;;;;;;;;;;;7.30;99.90;;;;;;5093752;28;20431;-77
2020/12/18 09:47:52;;;;;;;;;;;7.30;99.90;;;;;;5093478;28;19926;-80
2020/12/18 09:50:18;;;;;;;;;;;7.40;99.90;;;;;;5092988;28;19916;-78
2020/12/18 09:52:43;;;;;;;;;;;7.30;99.90;;;;;;5094833;28;19916;-80
2020/12/18 09:55:09;;;;;;;;;;;7.40;99.90;;;;;;5093616;28;20430;-79
2020/12/18 09:57:34;;;;;;;;;;;7.30;99.90;;;;;;5094289;28;20014;-80
2020/12/18 10:00:00;;;;;;;;;;;7.20;99.90;;;;;;5094123;28;19920;-79
2020/12/18 10:02:28;;;;;;;;;;;7.30;99.90;;;;;;5094404;28;19916;-79
2020/12/18 10:04:53;;;;;;;;;;;7.30;99.90;;;;;;5093457;28;19920;-79
2020/12/18 10:07:19;;;;;;;;;;;7.20;99.90;;;;;;5093041;28;20036;-80
2020/12/18 10:09:44;;;;;;;;;;;7.30;99.90;;;;;;5092818;28;20386;-79
2020/12/18 10:12:10;;;;;;;;;;;7.40;99.90;;;;;;5095278;28;19923;-79
2020/12/18 10:14:35;;;;;;;;;;;7.50;99.90;;;;;;5094414;28;19922;-81
2020/12/18 10:17:01;;;;;;;;;;;7.50;99.90;;;;;;5094979;28;20396;-79
2020/12/18 10:19:27;;;;;;;;;;;7.60;99.90;;;;;;5096365;28;19976;-81
2020/12/18 10:21:52;;;;;;;;;;;7.70;99.90;;;;;;5094961;28;19920;-78
2020/12/18 10:24:18;;;;;;;;;;;7.70;99.90;;;;;;5093362;28;20284;-80
2020/12/18 10:26:43;;;;;;;;;;;7.70;99.90;;;;;;5097374;28;19916;-82
2020/12/18 10:29:10;;;;;;;;;;;9.00;99.90;;;;;;5099297;28;19915;-82
2020/12/18 10:31:35;;;;;;;;;;;8.40;99.90;;;;;;5102867;28;19915;-82
2020/12/18 10:34:03;;;;;;;;;;;8.60;99.90;;;;;;5102501;28;20014;-82
2020/12/18 10:36:29;;;;;;;;;;;8.70;99.90;;;;;;5105490;28;19931;-82
2020/12/18 10:38:54;;;;;;;;;;;9.00;99.90;;;;;;5095173;28;19929;-79
2020/12/18 10:41:20;;;;;;;;;;;8.70;99.90;;;;;;5096820;28;19928;-82
2020/12/18 10:43:45;;;;;;;;;;;9.10;99.90;;;;;;5099583;28;19923;-80
2020/12/18 10:46:11;;;;;;;;;;;9.40;99.90;;;;;;5096660;28;19919;-82
2020/12/18 10:48:36;;;;;;;;;;;9.60;99.90;;;;;;5096561;28;19919;-82
2020/12/18 10:51:02;;;;;;;;;;;9.50;99.90;;;;;;5097918;28;19939;-80
2020/12/18 10:53:28;;;;;;;;;;;9.30;99.90;;;;;;5097529;28;19923;-82
2020/12/18 10:55:54;;;;;;;;;;;9.40;99.90;;;;;;5097963;28;19920;-81
2020/12/18 10:58:19;;;;;;;;;;;9.80;99.90;;;;;;5099013;28;19938;-82
2020/12/18 11:00:45;;;;;;;;;;;9.80;99.90;;;;;;5096720;28;20329;-82
2020/12/18 11:03:10;;;;;;;;;;;10.00;99.90;;;;;;5097787;28;19916;-82
2020/12/18 11:05:36;;;;;;;;;;;10.00;99.90;;;;;;5099261;28;19916;-82
2020/12/18 11:08:01;;;;;;;;;;;9.60;99.90;;;;;;5098958;28;20053;-81
2020/12/18 11:10:28;;;;;;;;;;;9.60;99.90;;;;;;5097207;28;19916;-81
2020/12/18 11:12:53;;;;;;;;;;;9.50;99.90;;;;;;5097680;28;19926;-82
2020/12/18 11:15:18;;;;;;;;;;;9.60;99.90;;;;;;5097859;28;19916;-81
2020/12/18 11:17:44;;;;;;;;;;;9.60;99.90;;;;;;5098854;28;19979;-82
2020/12/18 11:20:11;;;;;;;;;;;9.50;99.90;;;;;;5097063;28;19962;-82
2020/12/18 11:22:36;;;;;;;;;;;9.30;99.90;;;;;;5097187;28;19962;-82
2020/12/18 11:25:04;;;;;;;;;;;9.20;99.90;;;;;;5099397;28;19915;-80
2020/12/18 11:27:31;;;;;;;;;;;9.10;99.90;;;;;;5099042;28;19916;-82
2020/12/18 11:29:56;;;;;;;;;;;9.00;99.90;;;;;;5095766;28;19920;-81
2020/12/18 11:32:22;;;;;;;;;;;8.90;99.90;;;;;;5099559;28;20418;-81
2020/12/18 11:34:47;;;;;;;;;;;9.20;99.90;;;;;;5099181;28;19962;-80
2020/12/18 11:37:13;;;;;;;;;;;9.50;99.90;;;;;;5097737;28;19916;-81
2020/12/18 11:39:38;;;;;;;;;;;9.70;99.90;;;;;;5097282;28;19923;-82
2020/12/18 11:42:04;;;;;;;;;;;10.30;99.90;;;;;;5096076;28;19927;-81
2020/12/18 11:44:30;;;;;;;;;;;10.70;99.90;;;;;;5095704;28;19940;-82
2020/12/18 11:46:55;;;;;;;;;;;11.20;99.90;;;;;;5096562;28;20354;-80
2020/12/18 11:49:21;;;;;;;;;;;11.50;99.90;;;;;;5095556;28;19967;-81
2020/12/18 11:51:46;;;;;;;;;;;11.50;99.90;;;;;;5097044;28;19916;-80
2020/12/18 11:54:12;;;;;;;;;;;11.40;99.90;;;;;;5095843;28;19920;-81
2020/12/18 11:56:37;;;;;;;;;;;11.30;99.90;;;;;;5098049;28;19920;-81
2020/12/18 11:59:03;;;;;;;;;;;10.40;99.90;;;;;;5098566;28;19961;-81
2020/12/18 12:01:29;;;;;;;;;;;10.20;99.90;;;;;;5101611;28;20018;-80
2020/12/18 12:03:55;;;;;;;;;;;10.40;99.90;;;;;;5100024;28;19963;-82
2020/12/18 12:06:20;;;;;;;;;;;10.10;99.90;;;;;;5101694;28;19923;-80
2020/12/18 12:08:46;;;;;;;;;;;9.80;99.90;;;;;;5100973;28;19916;-81
2020/12/18 12:11:12;;;;;;;;;;;9.80;99.90;;;;;;5099668;28;19916;-80
2020/12/18 12:13:38;;;;;;;;;;;9.70;99.90;;;;;;5100976;28;20305;-81
2020/12/18 12:16:03;;;;;;;;;;;9.70;99.90;;;;;;5100786;28;19916;-80
2020/12/18 12:18:30;;;;;;;;;;;9.80;99.90;;;;;;5099767;28;19923;-82
2020/12/18 12:20:55;;;;;;;;;;;9.90;99.90;;;;;;5098974;28;19969;-80
2020/12/18 12:23:21;;;;;;;;;;;10.40;99.90;;;;;;5101254;28;19919;-80
2020/12/18 12:25:46;;;;;;;;;;;10.10;99.90;;;;;;5100241;28;20365;-82
2020/12/18 12:28:12;;;;;;;;;;;10.50;99.90;;;;;;5101672;28;19916;-80
2020/12/18 12:30:37;;;;;;;;;;;10.60;99.90;;;;;;5097889;28;19916;-82
2020/12/18 12:33:02;;;;;;;;;;;10.70;99.90;;;;;;5099759;28;20024;-82
2020/12/18 12:35:29;;;;;;;;;;;11.00;99.90;;;;;;5101317;28;19916;-82
2020/12/18 12:37:54;;;;;;;;;;;10.60;99.90;;;;;;5093659;28;20000;-81
2020/12/18 12:40:20;;;;;;;;;;;10.40;99.90;;;;;;5095505;28;20357;-81
2020/12/18 12:42:45;;;;;;;;;;;10.50;99.90;;;;;;5096002;28;19967;-80
2020/12/18 12:45:11;;;;;;;;;;;10.50;99.90;;;;;;5098202;28;19920;-81
2020/12/18 12:47:36;;;;;;;;;;;10.50;99.90;;;;;;5098095;28;19916;-81
2020/12/18 12:50:02;;;;;;;;;;;10.50;99.90;;;;;;5097336;28;19944;-79
2020/12/18 12:52:28;;;;;;;;;;;10.60;99.90;;;;;;5097332;28;19920;-80
2020/12/18 12:54:54;;;;;;;;;;;10.50;99.90;;;;;;5096956;28;19958;-80
2020/12/18 12:57:19;;;;;;;;;;;10.60;99.90;;;;;;5096859;28;19920;-80
2020/12/18 12:59:45;;;;;;;;;;;10.60;99.90;;;;;;5096327;28;20018;-81
2020/12/18 13:02:10;;;;;;;;;;;10.60;99.90;;;;;;5099416;28;20166;-82
2020/12/18 13:04:36;;;;;;;;;;;10.50;99.90;;;;;;5097813;28;20009;-80
2020/12/18 13:07:01;;;;;;;;;;;10.60;99.90;;;;;;5097575;28;19932;-81
2020/12/18 13:09:27;;;;;;;;;;;10.90;99.90;;;;;;5098047;28;20408;-80
2020/12/18 13:11:53;;;;;;;;;;;11.30;99.90;;;;;;5096487;28;20313;-79
2020/12/18 13:14:18;;;;;;;;;;;11.50;99.90;;;;;;5093314;28;19959;-79
2020/12/18 13:16:44;;;;;;;;;;;11.50;99.90;;;;;;5093386;28;19920;-80
2020/12/18 13:19:09;;;;;;;;;;;11.70;99.90;;;;;;5093230;28;19998;-80
2020/12/18 13:21:35;;;;;;;;;;;11.60;99.90;;;;;;5093443;28;19942;-80
2020/12/18 13:24:01;;;;;;;;;;;11.70;99.90;;;;;;5093410;28;19980;-80
2020/12/18 13:26:28;;;;;;;;;;;11.60;99.90;;;;;;5095079;28;20361;-79